Time;durP1;ratioP1;P1;durP2;ratioP2;P2;SDS_P1;SDS_P2;PMS_P1;PMS_P2;Temp;Humidity;BMP_temperature;BMP_pressure;BME280_temperature;BME280_humidity;BME280_pressure;Samples;Min_cycle;Max_cycle;Signal;HPM_P1;HPM_P2
2023/12/24 00:01:32;;;;;;;13.45;2.92;;;19.80;48.10;;;;;;5093078;28;20277;-60
2023/12/24 00:04:00;;;;;;;13.50;3.05;;;19.80;48.70;;;;;;5093420;28;20217;-60
2023/12/24 00:06:28;;;;;;;14.07;2.58;;;19.80;48.10;;;;;;5093342;28;20289;-60
2023/12/24 00:08:54;;;;;;;10.65;3.03;;;19.80;48.10;;;;;;5093261;28;20271;-59
2023/12/24 00:11:21;;;;;;;12.95;2.97;;;19.80;48.10;;;;;;5093285;28;20190;-60
2023/12/24 00:13:48;;;;;;;12.93;3.17;;;19.80;48.80;;;;;;5092914;28;20599;-60
2023/12/24 00:16:15;;;;;;;9.82;2.80;;;19.70;48.90;;;;;;5092532;28;20609;-60
2023/12/24 00:18:42;;;;;;;14.38;2.83;;;19.80;48.30;;;;;;5092869;28;20718;-60
2023/12/24 00:21:13;;;;;;;12.95;3.00;;;19.70;48.90;;;;;;5092522;28;20281;-60
2023/12/24 00:23:39;;;;;;;9.07;2.70;;;19.80;48.30;;;;;;5092746;28;20650;-60
2023/12/24 00:26:06;;;;;;;9.35;2.58;;;19.70;48.30;;;;;;5092958;28;20186;-60
2023/12/24 00:28:33;;;;;;;13.38;3.03;;;19.70;48.30;;;;;;5092947;28;20220;-60
2023/12/24 00:31:00;;;;;;;13.07;3.22;;;19.70;48.30;;;;;;5092520;28;20273;-60
2023/12/24 00:33:27;;;;;;;14.57;3.58;;;19.70;48.40;;;;;;5093019;28;20309;-60
2023/12/24 00:35:54;;;;;;;14.00;3.03;;;19.70;48.40;;;;;;5092857;28;20289;-60
2023/12/24 00:38:22;;;;;;;14.95;3.05;;;19.70;48.40;;;;;;5092527;28;20308;-60
2023/12/24 00:40:49;;;;;;;15.02;2.97;;;19.70;48.50;;;;;;5092491;28;20624;-60
2023/12/24 00:43:16;;;;;;;11.75;2.47;;;19.70;48.50;;;;;;5092804;28;20225;-60
2023/12/24 00:45:44;;;;;;;14.25;2.88;;;19.70;48.50;;;;;;5092468;28;20734;-59
2023/12/24 00:48:12;;;;;;;11.15;2.78;;;19.70;49.20;;;;;;5092741;28;20217;-60
2023/12/24 00:50:38;;;;;;;12.05;3.03;;;19.60;48.50;;;;;;5092199;28;20277;-60
2023/12/24 00:53:05;;;;;;;17.95;3.10;;;19.70;48.60;;;;;;5092308;28;20273;-60
2023/12/24 00:55:33;;;;;;;17.48;3.53;;;19.60;48.50;;;;;;5092539;28;20302;-60
2023/12/24 00:58:00;;;;;;;17.85;2.88;;;19.60;48.50;;;;;;5092524;28;20217;-60
2023/12/24 01:00:27;;;;;;;15.70;3.45;;;19.60;48.50;;;;;;5092245;28;20189;-60
2023/12/24 01:02:54;;;;;;;17.25;3.28;;;19.60;48.60;;;;;;5092124;28;20190;-60
2023/12/24 01:05:21;;;;;;;14.32;3.35;;;19.60;48.60;;;;;;5092572;28;20190;-61
2023/12/24 01:07:48;;;;;;;11.45;2.83;;;19.60;48.60;;;;;;5092011;28;20196;-60
2023/12/24 01:10:15;;;;;;;15.00;3.30;;;19.60;48.60;;;;;;5092613;28;20300;-60
2023/12/24 01:12:43;;;;;;;14.55;3.00;;;19.60;48.60;;;;;;5091809;28;20745;-60
2023/12/24 01:15:11;;;;;;;14.85;3.03;;;19.60;48.70;;;;;;5092226;28;20267;-60
2023/12/24 01:17:37;;;;;;;13.23;3.33;;;19.60;49.30;;;;;;5092401;28;20186;-60
2023/12/24 01:20:13;;;;;;;11.73;3.08;;;19.60;49.30;;;;;;5092351;28;20405;-61
2023/12/24 01:22:40;;;;;;;12.55;3.33;;;19.60;48.70;;;;;;5091633;28;20666;-61
2023/12/24 01:25:08;;;;;;;15.32;3.25;;;19.60;48.70;;;;;;5092375;28;20637;-59
2023/12/24 01:27:35;;;;;;;11.65;3.30;;;19.60;48.80;;;;;;5091944;28;20220;-60
2023/12/24 01:30:04;;;;;;;8.48;2.38;;;19.60;48.80;;;;;;5092138;28;20300;-60
2023/12/24 01:32:32;;;;;;;11.23;3.25;;;19.60;48.80;;;;;;5092221;28;20195;-60
2023/12/24 01:34:59;;;;;;;14.10;3.08;;;19.60;48.80;;;;;;5095558;28;20213;-60
2023/12/24 01:37:26;;;;;;;11.63;3.08;;;19.60;48.90;;;;;;5095793;28;20252;-61
2023/12/24 01:39:52;;;;;;;16.33;3.45;;;19.60;48.90;;;;;;5096297;28;20213;-60
2023/12/24 01:42:19;;;;;;;12.65;3.30;;;19.50;48.90;;;;;;5096134;28;20212;-60
2023/12/24 01:44:46;;;;;;;12.30;3.42;;;19.50;49.50;;;;;;5095674;28;20216;-60
2023/12/24 01:47:15;;;;;;;15.25;3.45;;;19.50;48.90;;;;;;5096125;28;20618;-60
2023/12/24 01:49:45;;;;;;;14.13;2.83;;;19.50;49.60;;;;;;5095984;28;20222;-60
2023/12/24 01:52:12;;;;;;;13.73;3.35;;;19.50;48.90;;;;;;5095584;28;20217;-60
2023/12/24 01:54:39;;;;;;;13.07;3.63;;;19.50;48.90;;;;;;5095985;28;20300;-60
2023/12/24 01:57:06;;;;;;;16.80;3.72;;;19.50;48.90;;;;;;5095663;28;20216;-61
2023/12/24 01:59:34;;;;;;;11.70;3.03;;;19.50;49.00;;;;;;5095594;28;20790;-60
2023/12/24 02:02:03;;;;;;;14.02;3.38;;;19.50;49.00;;;;;;5095788;28;20366;-59
2023/12/24 02:04:32;;;;;;;14.50;3.20;;;19.50;49.60;;;;;;5095676;28;20267;-60
2023/12/24 02:06:59;;;;;;;12.13;2.70;;;19.50;49.10;;;;;;5095487;28;20273;-60
2023/12/24 02:09:26;;;;;;;15.77;3.40;;;19.50;49.10;;;;;;5095804;28;20305;-60
2023/12/24 02:11:53;;;;;;;12.55;3.33;;;19.50;49.10;;;;;;5092903;28;20763;-60
2023/12/24 02:14:20;;;;;;;16.02;3.67;;;19.50;49.20;;;;;;5095052;28;20305;-60
2023/12/24 02:16:48;;;;;;;11.75;3.67;;;19.50;49.20;;;;;;5095434;28;20308;-60
2023/12/24 02:19:18;;;;;;;12.65;3.50;;;19.50;49.90;;;;;;5095579;28;20240;-60
2023/12/24 02:21:46;;;;;;;14.15;3.63;;;19.50;49.30;;;;;;5095124;28;20280;-60
2023/12/24 02:24:15;;;;;;;16.73;3.70;;;19.50;50.00;;;;;;5095446;28;20296;-60
2023/12/24 02:26:59;;;;;;;13.65;3.47;;;19.50;49.40;;;;;;5095267;28;20222;-60
2023/12/24 02:29:28;;;;;;;14.80;3.55;;;19.50;49.40;;;;;;5094825;28;20761;-60
2023/12/24 02:32:03;;;;;;;17.00;3.25;;;19.50;49.40;;;;;;5094899;28;20193;-60
2023/12/24 02:34:31;;;;;;;11.77;3.17;;;19.40;49.30;;;;;;5095337;28;20213;-60
2023/12/24 02:36:59;;;;;;;12.68;3.35;;;19.40;49.40;;;;;;5094760;28;20324;-60
2023/12/24 02:39:26;;;;;;;18.95;3.58;;;19.50;49.50;;;;;;5095206;28;20218;-60
2023/12/24 02:41:53;;;;;;;14.68;3.58;;;19.40;49.40;;;;;;5095003;28;20186;-60
2023/12/24 02:44:20;;;;;;;15.38;3.60;;;19.40;49.40;;;;;;5093714;28;20703;-60
2023/12/24 02:46:47;;;;;;;13.18;3.90;;;19.40;49.50;;;;;;5094618;28;20643;-60
2023/12/24 02:49:14;;;;;;;13.27;3.08;;;19.40;49.50;;;;;;5095113;28;20225;-60
2023/12/24 02:51:41;;;;;;;13.60;3.42;;;19.40;49.50;;;;;;5094431;28;20190;-59
2023/12/24 02:54:09;;;;;;;14.02;3.78;;;19.40;49.50;;;;;;5094619;28;20300;-60
2023/12/24 02:56:37;;;;;;;19.00;4.10;;;19.50;50.30;;;;;;5094393;28;20690;-60
2023/12/24 02:59:04;;;;;;;16.58;3.85;;;19.40;49.60;;;;;;5094282;28;20229;-60
2023/12/24 03:01:31;;;;;;;17.20;3.90;;;19.40;49.60;;;;;;5094847;28;20182;-58
2023/12/24 03:03:58;;;;;;;18.95;3.83;;;19.40;49.60;;;;;;5094572;28;20325;-61
2023/12/24 03:06:24;;;;;;;18.10;3.85;;;19.40;49.70;;;;;;5094216;28;20277;-60
2023/12/24 03:08:51;;;;;;;15.27;3.65;;;19.40;49.70;;;;;;5094306;28;20711;-60
2023/12/24 03:11:19;;;;;;;17.08;3.50;;;19.40;49.70;;;;;;5094159;28;20734;-60
2023/12/24 03:13:46;;;;;;;20.88;3.80;;;19.40;50.40;;;;;;5093812;28;20324;-60
2023/12/24 03:16:13;;;;;;;13.30;3.20;;;19.40;49.80;;;;;;5094136;28;20320;-60
2023/12/24 03:18:40;;;;;;;19.25;3.58;;;19.40;49.80;;;;;;5094386;28;20218;-58
2023/12/24 03:21:08;;;;;;;17.02;3.42;;;19.40;49.80;;;;;;5093597;28;20566;-60
2023/12/24 03:23:35;;;;;;;15.10;3.20;;;19.40;49.80;;;;;;5094264;28;20301;-61
2023/12/24 03:26:02;;;;;;;17.10;3.42;;;19.40;49.90;;;;;;5094121;28;20274;-61
2023/12/24 03:28:31;;;;;;;11.43;3.22;;;19.40;49.90;;;;;;5093693;28;20297;-60
2023/12/24 03:30:58;;;;;;;16.30;3.90;;;19.30;49.90;;;;;;5094129;28;20281;-60
2023/12/24 03:33:25;;;;;;;16.90;3.65;;;19.30;49.80;;;;;;5094014;28;20272;-60
2023/12/24 03:35:52;;;;;;;13.75;3.55;;;19.40;50.00;;;;;;5093682;28;20197;-61
2023/12/24 03:38:20;;;;;;;16.30;4.15;;;19.30;49.90;;;;;;5093885;28;20628;-60
2023/12/24 03:40:47;;;;;;;16.48;4.00;;;19.30;50.00;;;;;;5093900;28;20262;-60
2023/12/24 03:43:14;;;;;;;16.35;3.72;;;19.30;50.60;;;;;;5093588;28;20186;-60
2023/12/24 03:45:42;;;;;;;16.27;3.92;;;19.30;50.10;;;;;;5093899;28;20243;-60
2023/12/24 03:48:11;;;;;;;14.00;3.55;;;19.30;50.60;;;;;;5093757;28;20274;-60
2023/12/24 03:50:38;;;;;;;12.73;3.10;;;19.30;50.10;;;;;;5093314;28;20186;-60
2023/12/24 03:53:06;;;;;;;15.18;3.53;;;19.30;50.10;;;;;;5093656;28;20297;-60
2023/12/24 03:55:33;;;;;;;17.48;3.95;;;19.30;50.20;;;;;;5093593;28;20218;-60
2023/12/24 03:58:00;;;;;;;16.13;4.22;;;19.30;50.30;;;;;;5092460;28;20226;-60
2023/12/24 04:00:26;;;;;;;15.32;3.70;;;19.30;50.30;;;;;;5093704;28;20245;-60
2023/12/24 04:02:55;;;;;;;13.95;2.95;;;19.30;50.90;;;;;;5093418;28;20285;-60
2023/12/24 04:05:22;;;;;;;21.50;4.40;;;19.30;50.40;;;;;;5093119;28;20225;-60
2023/12/24 04:07:49;;;;;;;16.08;3.80;;;19.30;50.30;;;;;;5093407;28;20273;-60
2023/12/24 04:10:16;;;;;;;15.40;3.35;;;19.30;50.30;;;;;;5093528;28;20296;-60
2023/12/24 04:12:43;;;;;;;14.65;4.03;;;19.30;50.30;;;;;;5092509;28;20787;-60
2023/12/24 04:15:10;;;;;;;10.50;3.47;;;19.30;50.30;;;;;;5093206;28;20218;-60
2023/12/24 04:17:37;;;;;;;17.83;4.00;;;19.30;50.30;;;;;;5093216;28;20321;-61
2023/12/24 04:20:06;;;;;;;17.35;3.90;;;19.30;50.30;;;;;;5090554;28;20271;-60
2023/12/24 04:22:33;;;;;;;13.10;3.30;;;19.30;50.30;;;;;;5074320;28;20638;-61
2023/12/24 04:25:00;;;;;;;15.43;4.10;;;19.30;50.30;;;;;;5072533;28;20691;-60
2023/12/24 04:27:27;;;;;;;17.25;4.10;;;19.30;50.30;;;;;;5072193;28;20195;-60
2023/12/24 04:29:54;;;;;;;17.38;4.25;;;19.30;50.30;;;;;;5072911;28;20301;-60
2023/12/24 04:32:21;;;;;;;15.30;4.00;;;19.30;50.40;;;;;;5072664;28;20605;-60
2023/12/24 04:34:48;;;;;;;15.63;3.78;;;19.20;50.30;;;;;;5071992;28;20674;-60
2023/12/24 04:37:16;;;;;;;16.02;4.20;;;19.30;50.50;;;;;;5072321;28;20215;-60
2023/12/24 04:39:43;;;;;;;16.42;3.80;;;19.30;50.50;;;;;;5072601;28;20400;-60
2023/12/24 04:42:10;;;;;;;16.45;3.30;;;19.30;50.50;;;;;;5072218;28;20756;-60
2023/12/24 04:44:38;;;;;;;22.80;4.32;;;19.20;50.50;;;;;;5072841;28;20220;-60
2023/12/24 04:47:05;;;;;;;17.90;3.63;;;19.30;50.70;;;;;;5072562;28;20273;-60
2023/12/24 04:49:32;;;;;;;17.75;3.88;;;19.30;50.70;;;;;;5072316;28;20305;-61
2023/12/24 04:51:59;;;;;;;19.95;4.03;;;19.20;50.60;;;;;;5071886;28;20708;-60
2023/12/24 04:54:28;;;;;;;18.80;4.80;;;19.30;50.70;;;;;;5072224;28;20218;-60
2023/12/24 04:56:55;;;;;;;20.63;4.45;;;19.20;50.60;;;;;;5071981;28;20222;-60
2023/12/24 04:59:22;;;;;;;18.92;4.43;;;19.20;51.40;;;;;;5072333;28;20221;-59
2023/12/24 05:01:50;;;;;;;21.42;4.38;;;19.20;50.80;;;;;;5072120;28;20191;-60
2023/12/24 05:04:17;;;;;;;19.00;4.53;;;19.20;50.80;;;;;;5071845;28;20393;-61
2023/12/24 05:06:44;;;;;;;17.02;4.13;;;19.20;51.40;;;;;;5072295;28;20201;-61
2023/12/24 05:09:11;;;;;;;19.27;4.10;;;19.20;50.80;;;;;;5072014;28;20245;-60
2023/12/24 05:11:40;;;;;;;19.50;4.30;;;19.20;50.80;;;;;;5071654;28;20739;-60
2023/12/24 05:14:07;;;;;;;16.83;4.32;;;19.20;50.90;;;;;;5072286;28;20218;-60
2023/12/24 05:16:34;;;;;;;16.40;4.63;;;19.20;51.00;;;;;;5072192;28;20301;-60
2023/12/24 05:19:01;;;;;;;19.27;4.35;;;19.20;51.00;;;;;;5071876;28;20218;-60
2023/12/24 05:21:29;;;;;;;19.05;4.32;;;19.20;51.00;;;;;;5072450;28;20197;-60
2023/12/24 05:23:57;;;;;;;18.42;3.95;;;19.20;51.20;;;;;;5072027;28;20215;-60
2023/12/24 05:26:24;;;;;;;19.15;4.45;;;19.20;51.20;;;;;;5071537;28;20187;-60
2023/12/24 05:28:53;;;;;;;19.08;3.90;;;19.20;51.20;;;;;;5071640;28;20720;-60
2023/12/24 05:31:20;;;;;;;22.67;4.32;;;19.20;51.20;;;;;;5071673;28;20727;-60
2023/12/24 05:33:47;;;;;;;20.98;4.43;;;19.20;51.20;;;;;;5071936;28;20309;-60
2023/12/24 05:36:14;;;;;;;15.23;3.90;;;19.20;51.20;;;;;;5072063;28;20279;-61
2023/12/24 05:38:41;;;;;;;20.77;4.35;;;19.20;51.90;;;;;;5071432;28;20629;-60
2023/12/24 05:41:10;;;;;;;14.90;3.63;;;19.20;51.30;;;;;;5071254;28;20187;-60
2023/12/24 05:43:37;;;;;;;15.95;3.75;;;19.20;51.40;;;;;;5072001;28;20191;-61
2023/12/24 05:46:11;;;;;;;18.98;4.50;;;19.20;52.00;;;;;;5071611;28;20189;-61
2023/12/24 05:48:38;;;;;;;17.63;4.15;;;19.20;51.40;;;;;;5071589;28;20190;-60
2023/12/24 05:51:05;;;;;;;18.17;3.92;;;19.20;52.10;;;;;;5071784;28;20274;-60
2023/12/24 05:53:32;;;;;;;17.35;4.32;;;19.20;51.50;;;;;;5071772;28;20187;-59
2023/12/24 05:55:59;;;;;;;16.48;4.18;;;19.10;51.40;;;;;;5071428;28;20191;-60
2023/12/24 05:58:26;;;;;;;17.45;4.13;;;19.20;51.50;;;;;;5071663;28;20215;-61
2023/12/24 06:00:53;;;;;;;16.40;4.22;;;19.20;52.20;;;;;;5071702;28;20639;-61
2023/12/24 06:03:21;;;;;;;20.98;4.93;;;19.10;51.60;;;;;;5071135;28;20197;-60
2023/12/24 06:05:48;;;;;;;16.98;4.18;;;19.10;52.20;;;;;;5071496;28;20650;-59
2023/12/24 06:08:16;;;;;;;19.50;3.92;;;19.20;51.70;;;;;;5071757;28;20199;-60
2023/12/24 06:10:43;;;;;;;18.77;4.22;;;19.10;51.70;;;;;;5071061;28;20218;-60
2023/12/24 06:13:09;;;;;;;22.08;4.72;;;19.10;51.70;;;;;;5071466;28;20249;-61
2023/12/24 06:15:36;;;;;;;21.77;5.00;;;19.10;51.70;;;;;;5071553;28;20323;-60
2023/12/24 06:18:04;;;;;;;18.08;4.55;;;19.10;51.70;;;;;;5071321;28;20302;-60
2023/12/24 06:20:33;;;;;;;17.80;4.40;;;19.10;51.70;;;;;;5073412;28;20754;-60
2023/12/24 06:23:00;;;;;;;18.27;4.15;;;19.10;51.70;;;;;;5075525;28;20199;-61
2023/12/24 06:25:26;;;;;;;21.10;4.20;;;19.10;51.70;;;;;;5074503;28;20708;-60
2023/12/24 06:27:53;;;;;;;21.58;5.03;;;19.10;51.70;;;;;;5074997;28;20229;-60
2023/12/24 06:30:21;;;;;;;15.68;4.40;;;19.10;52.50;;;;;;5074871;28;20298;-60
2023/12/24 06:32:48;;;;;;;18.50;4.18;;;19.10;51.80;;;;;;5074674;28;20282;-61
2023/12/24 06:35:15;;;;;;;21.77;4.70;;;19.10;51.90;;;;;;5075086;28;20306;-60
2023/12/24 06:37:44;;;;;;;21.65;4.03;;;19.10;52.00;;;;;;5074819;28;20309;-60
2023/12/24 06:40:11;;;;;;;16.38;4.07;;;19.10;52.60;;;;;;5074409;28;20297;-60
2023/12/24 06:42:38;;;;;;;15.13;4.15;;;19.10;52.10;;;;;;5074864;28;20282;-60
2023/12/24 06:45:06;;;;;;;14.52;3.80;;;19.10;52.10;;;;;;5074534;28;20803;-60
2023/12/24 06:47:33;;;;;;;21.17;4.38;;;19.10;52.10;;;;;;5074515;28;20274;-60
2023/12/24 06:50:00;;;;;;;15.85;3.97;;;19.10;52.10;;;;;;5074760;28;20237;-61
2023/12/24 06:52:27;;;;;;;16.65;4.18;;;19.10;52.80;;;;;;5074635;28;20279;-60
2023/12/24 06:54:56;;;;;;;21.42;4.25;;;19.10;52.20;;;;;;5074635;28;20644;-61
2023/12/24 06:57:22;;;;;;;21.33;4.38;;;19.10;52.20;;;;;;5074350;28;20305;-60
2023/12/24 06:59:49;;;;;;;19.25;4.25;;;19.10;52.30;;;;;;5074399;28;20306;-60
2023/12/24 07:02:16;;;;;;;17.92;3.97;;;19.10;53.00;;;;;;5074267;28;20233;-60
2023/12/24 07:04:43;;;;;;;17.52;4.10;;;19.10;52.40;;;;;;5074066;28;20215;-60
2023/12/24 07:07:10;;;;;;;15.18;4.07;;;19.00;52.40;;;;;;5074374;28;20616;-60
2023/12/24 07:09:37;;;;;;;22.08;4.30;;;19.10;53.10;;;;;;5074456;28;20226;-60
2023/12/24 07:12:06;;;;;;;16.45;3.90;;;19.00;53.00;;;;;;5073419;28;20722;-60
2023/12/24 07:14:34;;;;;;;14.25;4.00;;;19.00;52.40;;;;;;5074412;28;20219;-61
2023/12/24 07:17:01;;;;;;;15.23;3.83;;;19.00;52.40;;;;;;5074014;28;20298;-61
2023/12/24 07:19:28;;;;;;;12.65;3.22;;;19.10;53.10;;;;;;5073823;28;20218;-60
2023/12/24 07:21:55;;;;;;;17.90;4.20;;;19.00;52.50;;;;;;5073707;28;20183;-60
2023/12/24 07:24:21;;;;;;;18.58;4.53;;;19.00;52.40;;;;;;5074090;28;20219;-60
2023/12/24 07:26:48;;;;;;;16.23;3.83;;;19.10;52.50;;;;;;5073443;28;20535;-59
2023/12/24 07:29:16;;;;;;;16.17;3.75;;;19.00;52.50;;;;;;5073685;28;20310;-61
2023/12/24 07:31:43;;;;;;;14.00;3.80;;;19.00;52.60;;;;;;5073224;28;20283;-61
2023/12/24 07:34:10;;;;;;;15.88;3.85;;;19.00;52.50;;;;;;5073601;28;20254;-60
2023/12/24 07:36:37;;;;;;;14.18;4.00;;;19.00;52.50;;;;;;5074021;28;20225;-60
2023/12/24 07:39:04;;;;;;;19.08;4.05;;;19.00;53.30;;;;;;5073609;28;20230;-60
2023/12/24 07:41:31;;;;;;;12.45;3.17;;;19.00;53.30;;;;;;5073205;28;20187;-60
2023/12/24 07:43:58;;;;;;;15.95;4.00;;;19.00;52.70;;;;;;5073366;28;20214;-60
2023/12/24 07:46:26;;;;;;;17.48;4.05;;;19.00;52.80;;;;;;5073600;28;20210;-60
2023/12/24 07:48:53;;;;;;;16.00;3.88;;;19.00;52.80;;;;;;5073207;28;20301;-60
2023/12/24 07:51:20;;;;;;;14.45;4.15;;;19.00;52.80;;;;;;5073456;28;20289;-60
2023/12/24 07:53:47;;;;;;;17.33;4.10;;;19.00;52.80;;;;;;5073170;28;20193;-60
2023/12/24 07:56:14;;;;;;;18.02;4.47;;;19.00;52.80;;;;;;5073081;28;20194;-60
2023/12/24 07:58:41;;;;;;;13.13;2.95;;;19.00;52.90;;;;;;5073301;28;20245;-60
2023/12/24 08:01:07;;;;;;;14.40;3.83;;;19.00;53.60;;;;;;5073031;28;20187;-60
2023/12/24 08:03:35;;;;;;;14.52;3.55;;;19.00;53.00;;;;;;5072780;28;20187;-60
2023/12/24 08:06:03;;;;;;;13.23;3.40;;;19.00;52.90;;;;;;5073297;28;20331;-60
2023/12/24 08:08:29;;;;;;;16.92;3.80;;;19.00;53.00;;;;;;5073084;28;20190;-60
2023/12/24 08:10:56;;;;;;;15.38;3.63;;;19.00;53.60;;;;;;5072796;28;20714;-60
2023/12/24 08:13:23;;;;;;;16.63;4.28;;;19.00;53.10;;;;;;5072885;28;20268;-60
2023/12/24 08:15:50;;;;;;;14.93;3.72;;;19.00;53.10;;;;;;5073149;28;20310;-60
2023/12/24 08:18:17;;;;;;;13.13;3.50;;;19.00;53.10;;;;;;5072770;28;20261;-60
2023/12/24 08:20:45;;;;;;;12.07;3.25;;;19.00;53.70;;;;;;5072745;28;20659;-60
2023/12/24 08:23:12;;;;;;;15.50;3.97;;;19.00;53.10;;;;;;5072842;28;20289;-60
2023/12/24 08:25:39;;;;;;;20.98;4.38;;;19.00;53.10;;;;;;5072712;28;20215;-60
2023/12/24 08:28:06;;;;;;;20.13;4.40;;;19.00;53.20;;;;;;5072384;28;20222;-60
2023/12/24 08:30:33;;;;;;;19.08;4.40;;;19.00;53.20;;;;;;5072697;28;20237;-60
2023/12/24 08:33:00;;;;;;;17.80;3.78;;;19.00;53.20;;;;;;5072366;28;20599;-60
2023/12/24 08:35:27;;;;;;;17.48;3.75;;;19.00;53.20;;;;;;5072432;28;20302;-60
2023/12/24 08:37:55;;;;;;;17.20;4.25;;;19.00;53.20;;;;;;5072592;28;20309;-60
2023/12/24 08:40:23;;;;;;;15.70;3.92;;;19.00;53.30;;;;;;5072226;28;20310;-60
2023/12/24 08:42:50;;;;;;;15.02;3.50;;;18.90;53.20;;;;;;5071897;28;20273;-60
2023/12/24 08:45:17;;;;;;;19.85;3.80;;;18.90;53.90;;;;;;5072433;28;20301;-60
2023/12/24 08:47:44;;;;;;;16.42;4.00;;;19.00;53.30;;;;;;5072223;28;20376;-60
2023/12/24 08:50:10;;;;;;;17.98;3.70;;;18.90;53.30;;;;;;5072592;28;20309;-59
2023/12/24 08:52:37;;;;;;;17.15;3.83;;;18.90;53.30;;;;;;5072239;28;20274;-60
2023/12/24 08:55:06;;;;;;;16.50;3.92;;;18.90;53.40;;;;;;5072002;28;20767;-60
2023/12/24 08:57:33;;;;;;;15.52;4.13;;;18.90;53.40;;;;;;5071993;28;20189;-60
2023/12/24 09:00:00;;;;;;;16.42;3.25;;;18.90;53.40;;;;;;5072195;28;20221;-61
2023/12/24 09:02:27;;;;;;;13.57;3.60;;;18.90;53.40;;;;;;5071744;28;20187;-60
2023/12/24 09:04:57;;;;;;;15.63;3.70;;;18.90;53.50;;;;;;5072485;28;20221;-60
2023/12/24 09:07:23;;;;;;;16.00;3.65;;;18.90;53.60;;;;;;5071842;28;20187;-60
2023/12/24 09:09:52;;;;;;;14.32;3.85;;;18.90;53.50;;;;;;5072209;28;20305;-60
2023/12/24 09:12:21;;;;;;;15.25;3.88;;;18.90;54.20;;;;;;5071724;28;20223;-61
2023/12/24 09:14:47;;;;;;;18.27;3.85;;;18.90;53.60;;;;;;5072106;28;20718;-60
2023/12/24 09:17:14;;;;;;;15.57;3.92;;;18.90;54.20;;;;;;5071928;28;20251;-61
2023/12/24 09:19:41;;;;;;;19.25;3.83;;;18.90;53.60;;;;;;5072194;28;20316;-59
2023/12/24 09:22:08;;;;;;;16.38;3.85;;;18.90;53.60;;;;;;5072063;28;20183;-60
2023/12/24 09:24:35;;;;;;;17.73;3.50;;;18.90;53.70;;;;;;5071528;28;20214;-60
2023/12/24 09:27:02;;;;;;;13.50;3.55;;;18.90;53.60;;;;;;5071794;28;20660;-60
2023/12/24 09:29:30;;;;;;;15.93;4.10;;;18.90;54.30;;;;;;5071735;28;20764;-60
2023/12/24 09:31:57;;;;;;;17.92;4.10;;;18.90;53.80;;;;;;5071691;28;20218;-60
2023/12/24 09:34:23;;;;;;;17.83;4.22;;;18.90;53.70;;;;;;5072175;28;20214;-60
2023/12/24 09:36:50;;;;;;;13.52;3.85;;;18.90;54.40;;;;;;5072074;28;20269;-60
2023/12/24 09:39:17;;;;;;;14.55;3.38;;;18.90;53.90;;;;;;5071515;28;20596;-60
2023/12/24 09:41:44;;;;;;;18.35;3.78;;;18.90;53.80;;;;;;5072067;28;20285;-60
2023/12/24 09:44:11;;;;;;;16.10;4.13;;;18.90;54.40;;;;;;5071860;28;20288;-59
2023/12/24 09:46:39;;;;;;;18.00;4.40;;;18.80;53.80;;;;;;5071309;28;20737;-60
2023/12/24 09:49:06;;;;;;;14.60;3.60;;;18.90;53.90;;;;;;5071883;28;20309;-60
2023/12/24 09:51:35;;;;;;;18.83;3.88;;;18.90;53.90;;;;;;5071777;28;20615;-60
2023/12/24 09:54:02;;;;;;;14.82;3.80;;;18.90;54.00;;;;;;5071149;28;20191;-61
2023/12/24 09:56:29;;;;;;;17.35;3.97;;;18.90;54.00;;;;;;5075335;28;20285;-60
2023/12/24 09:58:56;;;;;;;15.27;3.67;;;18.80;53.90;;;;;;5075629;28;20214;-60
2023/12/24 10:01:23;;;;;;;20.17;4.13;;;18.90;54.00;;;;;;5074908;28;20281;-60
2023/12/24 10:03:51;;;;;;;16.17;3.72;;;18.80;54.50;;;;;;5075447;28;20193;-59
2023/12/24 10:06:18;;;;;;;20.92;4.60;;;18.90;54.00;;;;;;5075574;28;20298;-60
2023/12/24 10:08:45;;;;;;;18.50;4.10;;;18.90;54.00;;;;;;5074825;28;20187;-60
2023/12/24 10:11:14;;;;;;;16.13;4.43;;;18.80;54.60;;;;;;5075334;28;20283;-60
2023/12/24 10:13:41;;;;;;;15.90;3.90;;;18.90;54.10;;;;;;5075228;28;20230;-60
2023/12/24 10:16:09;;;;;;;15.55;3.88;;;18.90;54.10;;;;;;5075156;28;20215;-60
2023/12/24 10:18:36;;;;;;;18.00;4.07;;;18.80;54.10;;;;;;5075109;28;20207;-60
2023/12/24 10:21:10;;;;;;;14.38;3.40;;;18.80;54.10;;;;;;5075405;28;20246;-60
2023/12/24 10:23:38;;;;;;;18.85;4.13;;;18.80;54.10;;;;;;5074565;28;20277;-61
2023/12/24 10:26:07;;;;;;;15.15;3.83;;;18.80;54.10;;;;;;5075188;28;20306;-60
2023/12/24 10:28:34;;;;;;;15.27;4.03;;;18.80;54.10;;;;;;5074722;28;20238;-61
2023/12/24 10:31:08;;;;;;;19.65;4.15;;;18.80;54.10;;;;;;5074599;28;20322;-59
2023/12/24 10:33:36;;;;;;;17.45;4.15;;;18.80;54.10;;;;;;5074689;28;20187;-60
2023/12/24 10:36:03;;;;;;;17.95;4.53;;;18.80;54.10;;;;;;5074932;28;20588;-60
2023/12/24 10:38:32;;;;;;;16.30;3.60;;;18.80;54.20;;;;;;5074200;28;20704;-61
2023/12/24 10:40:59;;;;;;;17.02;3.80;;;18.80;54.20;;;;;;5074856;28;20257;-60
2023/12/24 10:43:25;;;;;;;22.13;4.38;;;18.80;54.10;;;;;;5074714;28;20286;-60
2023/12/24 10:45:52;;;;;;;19.20;4.80;;;18.80;54.90;;;;;;5074651;28;20236;-60
2023/12/24 10:48:20;;;;;;;16.58;4.00;;;18.80;54.20;;;;;;5074734;28;20186;-60
2023/12/24 10:50:47;;;;;;;15.35;4.18;;;18.80;54.20;;;;;;5074559;28;20715;-60
2023/12/24 10:53:14;;;;;;;21.17;4.70;;;18.80;54.20;;;;;;5074515;28;20277;-59
2023/12/24 10:55:48;;;;;;;17.63;3.75;;;18.80;54.20;;;;;;5074830;28;20215;-60
2023/12/24 10:58:23;;;;;;;17.75;3.92;;;18.80;54.40;;;;;;5074479;28;20537;-59
2023/12/24 11:00:50;;;;;;;18.27;4.35;;;18.80;54.40;;;;;;5074244;28;20301;-60
2023/12/24 11:03:47;;;;;;;21.20;3.78;;;18.80;54.40;;;;;;5074224;28;20713;-60
2023/12/24 11:06:45;;;;;;;22.20;4.15;;;18.80;54.60;;;;;;5073997;28;20272;-60
2023/12/24 11:09:47;;;;;;;17.77;3.90;;;18.80;54.60;;;;;;5074222;28;20201;-60
2023/12/24 11:12:34;;;;;;;18.02;3.83;;;18.80;54.50;;;;;;5074126;28;20305;-60
2023/12/24 11:15:02;;;;;;;17.80;4.50;;;18.80;54.60;;;;;;5073561;28;20581;-60
2023/12/24 11:17:50;;;;;;;17.17;3.65;;;18.70;54.50;;;;;;5073890;28;20794;-60
2023/12/24 11:20:31;;;;;;;14.15;3.83;;;18.70;54.50;;;;;;5074230;28;20226;-60
2023/12/24 11:23:12;;;;;;;16.67;3.90;;;18.70;54.50;;;;;;5073554;28;20191;-60
2023/12/24 11:25:40;;;;;;;20.55;4.57;;;18.70;54.50;;;;;;5073978;28;20217;-60
2023/12/24 11:28:10;;;;;;;17.42;3.90;;;18.70;54.50;;;;;;5073620;28;20187;-59
2023/12/24 11:31:03;;;;;;;16.13;3.72;;;18.70;54.50;;;;;;5073220;28;20724;-60
2023/12/24 11:33:46;;;;;;;18.45;4.40;;;18.70;54.50;;;;;;5073903;28;20633;-60
2023/12/24 11:36:16;;;;;;;19.35;4.85;;;18.70;54.50;;;;;;5073676;28;20298;-60
2023/12/24 11:38:45;;;;;;;19.67;4.25;;;18.70;54.50;;;;;;5073796;28;20306;-59
2023/12/24 11:41:14;;;;;;;16.10;3.53;;;18.70;54.50;;;;;;5073344;28;20230;-59
2023/12/24 11:43:43;;;;;;;18.75;4.55;;;18.70;54.50;;;;;;5073121;28;20671;-59
2023/12/24 11:46:10;;;;;;;19.08;3.60;;;18.70;54.50;;;;;;5073857;28;20226;-59
2023/12/24 11:48:37;;;;;;;17.88;4.40;;;18.70;54.50;;;;;;5073608;28;20183;-61
2023/12/24 11:51:06;;;;;;;16.05;3.92;;;18.70;54.50;;;;;;5073223;28;20301;-60
2023/12/24 11:53:34;;;;;;;18.35;3.83;;;18.70;54.50;;;;;;5073463;28;20623;-60
2023/12/24 11:56:09;;;;;;;17.52;4.60;;;18.70;54.50;;;;;;5073561;28;20302;-60
2023/12/24 11:58:36;;;;;;;18.95;4.13;;;18.70;54.50;;;;;;5072964;28;20285;-60
2023/12/24 12:01:05;;;;;;;17.83;4.85;;;18.70;54.50;;;;;;5073146;28;20228;-59
2023/12/24 12:03:32;;;;;;;18.92;4.30;;;18.70;54.50;;;;;;5072975;28;20193;-60
2023/12/24 12:06:00;;;;;;;17.50;4.03;;;18.70;54.50;;;;;;5072513;28;20871;-60
2023/12/24 12:08:28;;;;;;;22.52;4.97;;;18.70;54.50;;;;;;5073184;28;20278;-60
2023/12/24 12:10:55;;;;;;;17.20;3.65;;;18.70;54.50;;;;;;5072645;28;20384;-60
2023/12/24 12:13:22;;;;;;;18.58;4.50;;;18.70;54.50;;;;;;5072480;28;20796;-60
2023/12/24 12:15:49;;;;;;;15.23;3.97;;;18.70;54.50;;;;;;5072960;28;20305;-60
2023/12/24 12:18:18;;;;;;;16.27;4.00;;;18.70;54.50;;;;;;5071946;28;20193;-60
2023/12/24 12:20:45;;;;;;;14.10;4.45;;;18.70;54.60;;;;;;5072038;28;20648;-60
2023/12/24 12:23:12;;;;;;;18.83;3.97;;;18.70;54.50;;;;;;5073010;28;20191;-61
2023/12/24 12:25:40;;;;;;;17.92;4.03;;;18.70;54.50;;;;;;5072586;28;20770;-60
2023/12/24 12:28:06;;;;;;;16.73;4.18;;;18.70;54.50;;;;;;5072154;28;20274;-60
2023/12/24 12:30:33;;;;;;;18.27;4.25;;;18.70;55.10;;;;;;5072539;28;20310;-60
2023/12/24 12:33:01;;;;;;;24.58;4.38;;;18.70;55.10;;;;;;5072715;28;20269;-60
2023/12/24 12:35:29;;;;;;;17.58;4.15;;;18.70;55.10;;;;;;5072349;28;20225;-60
2023/12/24 12:37:56;;;;;;;14.63;4.10;;;18.70;54.50;;;;;;5072686;28;20183;-60
2023/12/24 12:40:23;;;;;;;15.55;4.05;;;18.60;54.40;;;;;;5072420;28;20637;-60
2023/12/24 12:42:50;;;;;;;19.30;4.47;;;18.70;54.50;;;;;;5072049;28;20671;-60